Utah County RPA :: 3IDAHOFALLS

liberation: 2021-04-17  07:30     latitude: 43.441800     longitude: -112.113850 124 birds
# LOFT PRING MILES ARRIVAL SPEED ToWin
Craig Allred AU19-JEDD-34811 0 0000-00-00 00:00:00.000 0.000 00:00:00
Craig Allred AU19-JEDD-34815 0 0000-00-00 00:00:00.000 0.000 00:00:00
Craig Allred AU19-JEDD-34849 0 0000-00-00 00:00:00.000 0.000 00:00:00
Craig Allred AU19-MTZ-1321 0 0000-00-00 00:00:00.000 0.000 00:00:00
Craig Allred AU20-HARM-1689 0 0000-00-00 00:00:00.000 0.000 00:00:00
Craig Allred AU20-HARM-1695 0 0000-00-00 00:00:00.000 0.000 00:00:00
Craig Allred AU20-HARM-2617 0 0000-00-00 00:00:00.000 0.000 00:00:00
Craig Allred AU20-NLI-2008 0 0000-00-00 00:00:00.000 0.000 00:00:00
Craig Allred AU20-NLI-2015 0 0000-00-00 00:00:00.000 0.000 00:00:00
Craig Allred AU20-NLI-2413 0 0000-00-00 00:00:00.000 0.000 00:00:00
Craig Allred AU20-NLI-2417 0 0000-00-00 00:00:00.000 0.000 00:00:00
Craig Allred AU20-NLI-2419 0 0000-00-00 00:00:00.000 0.000 00:00:00
Craig Allred AU20-NLI-2503 0 0000-00-00 00:00:00.000 0.000 00:00:00
Craig Allred AU20-UVI-303 0 0000-00-00 00:00:00.000 0.000 00:00:00
Craig Allred AU20-UVI-352 0 0000-00-00 00:00:00.000 0.000 00:00:00
Craig Allred AU20-UVI-359 0 0000-00-00 00:00:00.000 0.000 00:00:00
Craig Allred AU20-UVI-361 0 0000-00-00 00:00:00.000 0.000 00:00:00
Craig Allred AU20-UVI-366 0 0000-00-00 00:00:00.000 0.000 00:00:00
Craig Allred IF20-VDB-0055 0 0000-00-00 00:00:00.000 0.000 00:00:00
Craig Allred IF20-VDB-0060 0 0000-00-00 00:00:00.000 0.000 00:00:00
Craig Allred IF20-VDB-25 0 0000-00-00 00:00:00.000 0.000 00:00:00
Craig Allred IF20-VDB-31 0 0000-00-00 00:00:00.000 0.000 00:00:00
Dry Creek Lofts AU-20-NEBO-323 0 0000-00-00 00:00:00.000 0.000 00:00:00
Dry Creek Lofts AU20-NEBO-0332 0 0000-00-00 00:00:00.000 0.000 00:00:00
Dry Creek Lofts AU20-NEBO-0357 0 0000-00-00 00:00:00.000 0.000 00:00:00
Dry Creek Lofts AU20-NEBO-301 0 0000-00-00 00:00:00.000 0.000 00:00:00
Dry Creek Lofts AU20-NEBO-311 0 0000-00-00 00:00:00.000 0.000 00:00:00
Dry Creek Lofts AU20-NEBO-327 0 0000-00-00 00:00:00.000 0.000 00:00:00
Dry Creek Lofts AU20-NEBO-340 0 0000-00-00 00:00:00.000 0.000 00:00:00
Dry Creek Lofts AU20-NEBO-349 0 0000-00-00 00:00:00.000 0.000 00:00:00
Iron Will AU18-AA-4201 0 0000-00-00 00:00:00.000 0.000 00:00:00
Iron Will AU19-WGS-2597 0 0000-00-00 00:00:00.000 0.000 00:00:00
Iron Will AU20-UCA-0204 0 0000-00-00 00:00:00.000 0.000 00:00:00
Iron Will AU20-UCA-0213 0 0000-00-00 00:00:00.000 0.000 00:00:00
Iron Will AU20-UCA-0222 0 0000-00-00 00:00:00.000 0.000 00:00:00
Iron Will AU20-UCA-0245 0 0000-00-00 00:00:00.000 0.000 00:00:00
Iron Will AU20-UCA-0246 0 0000-00-00 00:00:00.000 0.000 00:00:00
Iron Will AU20-UCA-0260 0 0000-00-00 00:00:00.000 0.000 00:00:00
Iron Will AU20-UCA-0261 0 0000-00-00 00:00:00.000 0.000 00:00:00
Iron Will AU20-UCA-0266 0 0000-00-00 00:00:00.000 0.000 00:00:00
Iron Will AU20-UCA-0274 0 0000-00-00 00:00:00.000 0.000 00:00:00
Iron Will AU20-UCA-0277 0 0000-00-00 00:00:00.000 0.000 00:00:00
Iron Will AU20-UCA-0290 0 0000-00-00 00:00:00.000 0.000 00:00:00
Iron Will AU20-UCA-0328 0 0000-00-00 00:00:00.000 0.000 00:00:00
Iron Will AU20-UCA-0375 0 0000-00-00 00:00:00.000 0.000 00:00:00
Peery Loft AU16-UCA-0049 0 0000-00-00 00:00:00.000 0.000 00:00:00
Peery Loft AU18-UCA-0497 0 0000-00-00 00:00:00.000 0.000 00:00:00
Peery Loft AU18-UCA-0498 0 0000-00-00 00:00:00.000 0.000 00:00:00
Peery Loft AU18-UCA-0522 0 0000-00-00 00:00:00.000 0.000 00:00:00
Peery Loft AU19-UCA-0615 0 0000-00-00 00:00:00.000 0.000 00:00:00
Peery Loft AU19-UCA-0623 0 0000-00-00 00:00:00.000 0.000 00:00:00
Peery Loft AU19-UCA-0901 0 0000-00-00 00:00:00.000 0.000 00:00:00
Peery Loft AU19-UCA-0908 0 0000-00-00 00:00:00.000 0.000 00:00:00
Peery Loft AU19-UCA-0910 0 0000-00-00 00:00:00.000 0.000 00:00:00
Peery Loft AU19-UCA-0942 0 0000-00-00 00:00:00.000 0.000 00:00:00
Peery Loft AU19-UCA-0943 0 0000-00-00 00:00:00.000 0.000 00:00:00
Peery Loft AU19-UVI-0187 0 0000-00-00 00:00:00.000 0.000 00:00:00
Peery Loft AU19-UVI-0300 0 0000-00-00 00:00:00.000 0.000 00:00:00
Peery Loft AU20-UCA-0003 0 0000-00-00 00:00:00.000 0.000 00:00:00
Peery Loft AU20-UCA-0004 0 0000-00-00 00:00:00.000 0.000 00:00:00
Peery Loft AU20-UCA-0007 0 0000-00-00 00:00:00.000 0.000 00:00:00
Peery Loft AU20-UCA-0019 0 0000-00-00 00:00:00.000 0.000 00:00:00
Peery Loft AU20-UCA-0034 0 0000-00-00 00:00:00.000 0.000 00:00:00
Peery Loft AU20-UCA-0038 0 0000-00-00 00:00:00.000 0.000 00:00:00
Peery Loft AU20-UCA-0041 0 0000-00-00 00:00:00.000 0.000 00:00:00
Peery Loft AU20-UCA-0042 0 0000-00-00 00:00:00.000 0.000 00:00:00
Peery Loft AU20-UCA-0067 0 0000-00-00 00:00:00.000 0.000 00:00:00
Riley Allred AU19-JEDD-34842 0 0000-00-00 00:00:00.000 0.000 00:00:00
Riley Allred AU19-JEDD-34848 0 0000-00-00 00:00:00.000 0.000 00:00:00
Riley Allred AU19-JEDD-42112 0 0000-00-00 00:00:00.000 0.000 00:00:00
Riley Allred AU19-JEDD-42113 0 0000-00-00 00:00:00.000 0.000 00:00:00
Riley Allred AU19-UCA-940 0 0000-00-00 00:00:00.000 0.000 00:00:00
Riley Allred AU19-UCA-959 0 0000-00-00 00:00:00.000 0.000 00:00:00
Riley Allred AU19-WFA-1368 0 0000-00-00 00:00:00.000 0.000 00:00:00
Riley Allred AU20-UCA-101 0 0000-00-00 00:00:00.000 0.000 00:00:00
Riley Allred AU20-UCA-102 0 0000-00-00 00:00:00.000 0.000 00:00:00
Riley Allred AU20-UCA-106 0 0000-00-00 00:00:00.000 0.000 00:00:00
Riley Allred AU20-UCA-107 0 0000-00-00 00:00:00.000 0.000 00:00:00
Riley Allred AU20-UCA-116 0 0000-00-00 00:00:00.000 0.000 00:00:00
Riley Allred AU20-UCA-119 0 0000-00-00 00:00:00.000 0.000 00:00:00
Riley Allred AU20-UCA-127 0 0000-00-00 00:00:00.000 0.000 00:00:00
Riley Allred AU20-UCA-132 0 0000-00-00 00:00:00.000 0.000 00:00:00
Riley Allred AU20-UCA-136 0 0000-00-00 00:00:00.000 0.000 00:00:00
Riley Allred AU20-UCA-139 0 0000-00-00 00:00:00.000 0.000 00:00:00
Riley Allred AU20-UCA-144 0 0000-00-00 00:00:00.000 0.000 00:00:00
Riley Allred AU20-UCA-147 0 0000-00-00 00:00:00.000 0.000 00:00:00
Riley Allred AU20-UCA-148 0 0000-00-00 00:00:00.000 0.000 00:00:00
Riley Allred AU20-UCA-151 0 0000-00-00 00:00:00.000 0.000 00:00:00
Riley Allred AU20-UCA-153 0 0000-00-00 00:00:00.000 0.000 00:00:00
Riley Allred AU20-UCA-156 0 0000-00-00 00:00:00.000 0.000 00:00:00
Riley Allred AU20-UCA-157 0 0000-00-00 00:00:00.000 0.000 00:00:00
Riley Allred AU20-UCA-161 0 0000-00-00 00:00:00.000 0.000 00:00:00
Riley Allred AU20-UCA-166 0 0000-00-00 00:00:00.000 0.000 00:00:00
Riley Allred AU20-UCA-170 0 0000-00-00 00:00:00.000 0.000 00:00:00
Sherwood Loft AU13-UCA-0368 0 0000-00-00 00:00:00.000 0.000 00:00:00
Sherwood Loft AU18-UCA-0634 0 0000-00-00 00:00:00.000 0.000 00:00:00
Sherwood Loft AU18-UCA-0681 0 0000-00-00 00:00:00.000 0.000 00:00:00
Sherwood Loft AU18-UCA-0686 0 0000-00-00 00:00:00.000 0.000 00:00:00
Sherwood Loft AU19-AA-18420 0 0000-00-00 00:00:00.000 0.000 00:00:00
Sherwood Loft AU19-AA-18442 0 0000-00-00 00:00:00.000 0.000 00:00:00
Sherwood Loft AU19-JEDD-26375 0 0000-00-00 00:00:00.000 0.000 00:00:00
Sherwood Loft AU20-E-71180 0 0000-00-00 00:00:00.000 0.000 00:00:00
Sherwood Loft AU20-NEBO-0218 0 0000-00-00 00:00:00.000 0.000 00:00:00
Sherwood Loft AU20-NEBO-0254 0 0000-00-00 00:00:00.000 0.000 00:00:00
Sherwood Loft AU20-NEBO-0255 0 0000-00-00 00:00:00.000 0.000 00:00:00
Sherwood Loft AU20-NEBO-0268 0 0000-00-00 00:00:00.000 0.000 00:00:00
Sherwood Loft AU20-NEBO-0278 0 0000-00-00 00:00:00.000 0.000 00:00:00
Sherwood Loft AU20-NEBO-0279 0 0000-00-00 00:00:00.000 0.000 00:00:00
Sherwood Loft AU20-NEBO-0285 0 0000-00-00 00:00:00.000 0.000 00:00:00
Sherwood Loft AU20-NEBO-0643 0 0000-00-00 00:00:00.000 0.000 00:00:00
Sherwood Loft AU20-NEBO-0648 0 0000-00-00 00:00:00.000 0.000 00:00:00
Sherwood Loft AU20-UCA-0409 0 0000-00-00 00:00:00.000 0.000 00:00:00
Sherwood Loft AU20-UCA-0413 0 0000-00-00 00:00:00.000 0.000 00:00:00
Sherwood Loft AU20-UCA-0469 0 0000-00-00 00:00:00.000 0.000 00:00:00
Sherwood Loft AU20-UCA-0475 0 0000-00-00 00:00:00.000 0.000 00:00:00
Sherwood Loft IF20-FOYS-2230 0 0000-00-00 00:00:00.000 0.000 00:00:00
Sherwood Loft IF20-FOYS-2244 0 0000-00-00 00:00:00.000 0.000 00:00:00
Sherwood Loft IF20-FOYS-2254 0 0000-00-00 00:00:00.000 0.000 00:00:00
Sherwood Loft IF20-FOYS-2259 0 0000-00-00 00:00:00.000 0.000 00:00:00
Sherwood Loft IF20-FOYS-2263 0 0000-00-00 00:00:00.000 0.000 00:00:00
Sherwood Loft IF20-FOYS-2269 0 0000-00-00 00:00:00.000 0.000 00:00:00
Sherwood Loft IF20-FOYS-2270 0 0000-00-00 00:00:00.000 0.000 00:00:00
Sherwood Loft IF20-FOYS-2275 0 0000-00-00 00:00:00.000 0.000 00:00:00
Sherwood Loft IF20-FOYS-2276 0 0000-00-00 00:00:00.000 0.000 00:00:00